PWSweather.com
Personal Weather Stations
Station Observations
COONRAPIDS
Minneapolis, MN 55433

Minneapolis, MN 55433

Lat: 45.187721, Lon: -93.36828

Elevation: 898

Station Type: Davis Vantage Pro 2

Latest ConditionsUpdated 4:50:00 AM CDT Thursday, Jul 18, 2019
Currently Today's Max Today's Min Today's Average
Temperature 72.3°F22.4°C 74.0°F23.3°C 71.6°F22.0°C 72.6°F22.6°C
Dew Point 68.5°F20.3°C 69.0°F20.6°C 67.2°F19.6°C 68.3°F20.2°C
Winds Calm Calm Calm -Calm - - Calm Calm
Wind Gusts -- -- - -
Humidity 88% 88% 82% 86%
Pressure 29.63 in1003.4 mb 29.69 in1005.4 mb 29.62 in1003.0 mb -
Hour Temp Dew Point Humidity Winds Wind Gusts Pressure Precip Precip Rate Daily Precip Total
04:50 AM 72.3°F22.4°C 68.5°F20.3°C 88% Calm Calm -- 29.63 in1003.4 mb - 0.00 in0.0 mm 0.00 in0.0 mm
04:40 AM 72.4°F22.4°C 68.6°F20.3°C 88% Calm Calm -- 29.65 in1004.1 mb - 0.00 in0.0 mm 0.00 in0.0 mm
04:30 AM 72.4°F22.4°C 68.6°F20.3°C 88% Calm Calm -- 29.63 in1003.4 mb - 0.00 in0.0 mm 0.00 in0.0 mm
04:20 AM 72.6°F22.6°C 68.8°F20.4°C 88% Calm Calm -- 29.63 in1003.4 mb - 0.00 in0.0 mm 0.00 in0.0 mm
04:10 AM 72.6°F22.6°C 68.9°F20.5°C 88% Calm Calm -- 29.63 in1003.4 mb - 0.00 in0.0 mm 0.00 in0.0 mm
04:00 AM 72.7°F22.6°C 68.9°F20.5°C 88% Calm Calm -- 29.64 in1003.7 mb - 0.00 in0.0 mm 0.00 in0.0 mm
03:50 AM 72.8°F22.7°C 69.0°F20.6°C 88% Calm Calm -- 29.62 in1003.0 mb - 0.00 in0.0 mm 0.00 in0.0 mm
03:40 AM 72.7°F22.6°C 68.9°F20.5°C 88% Calm Calm -- 29.63 in1003.4 mb - 0.00 in0.0 mm 0.00 in0.0 mm
03:30 AM 72.8°F22.7°C 69.0°F20.6°C 88% Calm Calm -- 29.64 in1003.7 mb - 0.00 in0.0 mm 0.00 in0.0 mm
03:20 AM 72.7°F22.6°C 68.9°F20.5°C 88% Calm Calm -- 29.64 in1003.7 mb - 0.00 in0.0 mm 0.00 in0.0 mm
03:10 AM 72.7°F22.6°C 68.9°F20.5°C 88% Calm Calm -- 29.64 in1003.7 mb - 0.00 in0.0 mm 0.00 in0.0 mm
03:00 AM 72.7°F22.6°C 68.9°F20.5°C 88% Calm Calm -- 29.65 in1004.1 mb - 0.00 in0.0 mm 0.00 in0.0 mm
02:50 AM 72.7°F22.6°C 68.9°F20.5°C 88% Calm Calm -- 29.66 in1004.4 mb - 0.00 in0.0 mm 0.00 in0.0 mm
02:40 AM 72.4°F22.4°C 68.6°F20.3°C 88% Calm Calm -- 29.66 in1004.4 mb - 0.00 in0.0 mm 0.00 in0.0 mm
02:30 AM 72.0°F22.2°C 68.3°F20.2°C 88% Calm Calm -- 29.67 in1004.7 mb - 0.00 in0.0 mm 0.00 in0.0 mm
02:20 AM 71.8°F22.1°C 67.7°F19.8°C 87% Calm Calm -- 29.68 in1005.1 mb - 0.00 in0.0 mm 0.00 in0.0 mm
02:10 AM 71.6°F22.0°C 67.5°F19.7°C 87% Calm Calm -- 29.67 in1004.7 mb - 0.00 in0.0 mm 0.00 in0.0 mm
02:00 AM 71.6°F22.0°C 67.2°F19.6°C 86% Calm Calm -- 29.66 in1004.4 mb - 0.00 in0.0 mm 0.00 in0.0 mm
01:50 AM 71.8°F22.1°C 67.4°F19.7°C 86% Calm Calm -- 29.66 in1004.4 mb - 0.00 in0.0 mm 0.00 in0.0 mm
01:40 AM 72.0°F22.2°C 67.5°F19.7°C 86% Calm Calm -- 29.67 in1004.7 mb - 0.00 in0.0 mm 0.00 in0.0 mm
01:30 AM 72.0°F22.2°C 67.2°F19.6°C 85% Calm Calm -- 29.66 in1004.4 mb - 0.00 in0.0 mm 0.00 in0.0 mm
01:20 AM 72.2°F22.3°C 67.5°F19.7°C 85% Calm Calm -- 29.66 in1004.4 mb - 0.00 in0.0 mm 0.00 in0.0 mm
01:10 AM 72.5°F22.5°C 67.7°F19.8°C 85% Calm Calm -- 29.66 in1004.4 mb - 0.00 in0.0 mm 0.00 in0.0 mm
01:00 AM 72.8°F22.7°C 68.0°F20.0°C 85% Calm Calm -- 29.66 in1004.4 mb - 0.00 in0.0 mm 0.00 in0.0 mm
12:50 AM 73.0°F22.8°C 68.2°F20.1°C 85% Calm Calm -- 29.66 in1004.4 mb - 0.00 in0.0 mm 0.00 in0.0 mm
12:40 AM 73.2°F22.9°C 68.1°F20.1°C 84% Calm Calm -- 29.66 in1004.4 mb - 0.00 in0.0 mm 0.00 in0.0 mm
12:30 AM 73.4°F23.0°C 68.3°F20.2°C 84% Calm Calm -- 29.67 in1004.7 mb - 0.00 in0.0 mm 0.00 in0.0 mm
12:20 AM 73.5°F23.1°C 68.0°F20.0°C 83% Calm Calm -- 29.68 in1005.1 mb - 0.00 in0.0 mm 0.00 in0.0 mm
12:10 AM 73.7°F23.2°C 67.9°F19.9°C 82% Calm Calm -- 29.68 in1005.1 mb - 0.00 in0.0 mm 0.00 in0.0 mm
12:00 AM 74.0°F23.3°C 68.2°F20.1°C 82% Calm Calm -- 29.69 in1005.4 mb - 0.00 in0.0 mm 0.00 in0.0 mm